ITY220 LIML-LIRF
Flight info
| Callsign | ITY220 |
|---|---|
| Flight time | 0h 57m |
| Altitude | 33000 |
| Route | EKPAL DCT TINKU DCT XIBIL |
| Aircraft | A320/M-SDE3FGHIRWY/LB1 |
Departure
| Time | 2026-02-19 14:59 |
|---|---|
| Airport | Milano Linate Airport (LIML) |
Arrival
| Time | 2026-02-19 15:56 |
|---|---|
| Airport | Rome–Fiumicino Leonardo da Vinci International Airport (LIRF) |
| Time | Latitude | Longitude | Altitude | Speed | Heading |
|---|---|---|---|---|---|
| 2026-02-19 14:33 | 45.45975 | 9.27966 | 360 ft | 0 kts | 360° |
| 2026-02-19 14:47 | 45.45967 | 9.27966 | 360 ft | 3 kts | 360° |
| 2026-02-19 14:47 | 45.45946 | 9.27966 | 360 ft | 3 kts | 360° |
| 2026-02-19 14:47 | 45.45927 | 9.27966 | 360 ft | 3 kts | 3° |
| 2026-02-19 14:47 | 45.45911 | 9.27963 | 360 ft | 3 kts | 53° |
| 2026-02-19 14:48 | 45.45907 | 9.27949 | 360 ft | 1 kts | 90° |
| 2026-02-19 14:48 | 45.45907 | 9.27899 | 360 ft | 2 kts | 91° |
| 2026-02-19 14:48 | 45.45908 | 9.27892 | 360 ft | 0 kts | 91° |
| 2026-02-19 14:50 | 45.45907 | 9.27894 | 360 ft | 1 kts | 91° |
| 2026-02-19 14:50 | 45.45907 | 9.27938 | 363 ft | 8 kts | 91° |
| 2026-02-19 14:50 | 45.45877 | 9.27984 | 360 ft | 7 kts | 176° |
| 2026-02-19 14:51 | 45.45816 | 9.27983 | 360 ft | 10 kts | 181° |
| 2026-02-19 14:51 | 45.45731 | 9.27981 | 360 ft | 14 kts | 181° |
| 2026-02-19 14:51 | 45.45627 | 9.27980 | 363 ft | 16 kts | 180° |
| 2026-02-19 14:51 | 45.45517 | 9.27978 | 360 ft | 16 kts | 180° |
| 2026-02-19 14:52 | 45.45400 | 9.27976 | 360 ft | 17 kts | 184° |
| 2026-02-19 14:52 | 45.45172 | 9.27870 | 360 ft | 18 kts | 177° |
| 2026-02-19 14:52 | 45.45047 | 9.27883 | 360 ft | 18 kts | 175° |
| 2026-02-19 14:53 | 45.44920 | 9.27913 | 362 ft | 19 kts | 163° |
| 2026-02-19 14:53 | 45.44789 | 9.27945 | 366 ft | 20 kts | 176° |
| 2026-02-19 14:53 | 45.44642 | 9.27961 | 365 ft | 22 kts | 175° |
| 2026-02-19 14:53 | 45.44483 | 9.27977 | 364 ft | 24 kts | 175° |
| 2026-02-19 14:54 | 45.44311 | 9.27997 | 360 ft | 26 kts | 175° |
| 2026-02-19 14:54 | 45.44129 | 9.28016 | 360 ft | 27 kts | 175° |
| 2026-02-19 14:54 | 45.43951 | 9.28036 | 361 ft | 22 kts | 176° |
| 2026-02-19 14:54 | 45.43789 | 9.28054 | 363 ft | 24 kts | 175° |
| 2026-02-19 14:55 | 45.43644 | 9.28069 | 363 ft | 21 kts | 174° |
| 2026-02-19 14:55 | 45.43514 | 9.28083 | 367 ft | 15 kts | 176° |
| 2026-02-19 14:55 | 45.43445 | 9.27994 | 363 ft | 16 kts | 266° |
| 2026-02-19 14:55 | 45.43438 | 9.27848 | 365 ft | 10 kts | 270° |
| 2026-02-19 14:56 | 45.43474 | 9.27818 | 362 ft | 6 kts | 1° |
| 2026-02-19 14:56 | 45.43479 | 9.27817 | 362 ft | 0 kts | 356° |
| 2026-02-19 14:58 | 45.43480 | 9.27817 | 362 ft | 0 kts | 356° |
| 2026-02-19 14:58 | 45.43608 | 9.27803 | 365 ft | 57 kts | 355° |
| 2026-02-19 14:58 | 45.44250 | 9.27732 | 359 ft | 125 kts | 356° |
| 2026-02-19 14:58 | 45.45277 | 9.27617 | 588 ft | 156 kts | 355° |
| 2026-02-19 14:59 | 45.46350 | 9.27617 | 1332 ft | 156 kts | 5° |
| 2026-02-19 14:59 | 45.47327 | 9.28350 | 1927 ft | 174 kts | 50° |
| 2026-02-19 14:59 | 45.47750 | 9.30075 | 2305 ft | 201 kts | 89° |
| 2026-02-19 14:59 | 45.47304 | 9.32065 | 2666 ft | 226 kts | 121° |
| 2026-02-19 15:00 | 45.46683 | 9.33326 | 2928 ft | 243 kts | 129° |
| 2026-02-19 15:00 | 45.43910 | 9.36626 | 4321 ft | 275 kts | 154° |
| 2026-02-19 15:00 | 45.42200 | 9.37921 | 5361 ft | 281 kts | 154° |
| 2026-02-19 15:01 | 45.40456 | 9.39244 | 6313 ft | 287 kts | 152° |
| 2026-02-19 15:01 | 45.38689 | 9.40621 | 7197 ft | 293 kts | 151° |
| 2026-02-19 15:01 | 45.36899 | 9.42057 | 8100 ft | 297 kts | 151° |
| 2026-02-19 15:01 | 45.35090 | 9.43542 | 8975 ft | 304 kts | 150° |
| 2026-02-19 15:02 | 45.33241 | 9.45081 | 9810 ft | 311 kts | 149° |
| 2026-02-19 15:02 | 45.31305 | 9.46702 | 10164 ft | 335 kts | 149° |
| 2026-02-19 15:02 | 45.29233 | 9.48441 | 10536 ft | 355 kts | 149° |
| 2026-02-19 15:02 | 45.27103 | 9.50224 | 11205 ft | 363 kts | 149° |
| 2026-02-19 15:03 | 45.24908 | 9.52058 | 11978 ft | 369 kts | 149° |
| 2026-02-19 15:03 | 45.22730 | 9.54014 | 12734 ft | 374 kts | 142° |
| 2026-02-19 15:03 | 45.20612 | 9.56207 | 13472 ft | 380 kts | 150° |
| 2026-02-19 15:03 | 45.18187 | 9.57742 | 14161 ft | 384 kts | 162° |
| 2026-02-19 15:04 | 45.15620 | 9.58799 | 14948 ft | 384 kts | 167° |
| 2026-02-19 15:04 | 45.10406 | 9.60655 | 16429 ft | 390 kts | 166° |
| 2026-02-19 15:04 | 45.07799 | 9.61774 | 17131 ft | 394 kts | 161° |
| 2026-02-19 15:05 | 45.05231 | 9.63191 | 17807 ft | 399 kts | 157° |
| 2026-02-19 15:05 | 45.02697 | 9.64837 | 18421 ft | 402 kts | 154° |
| 2026-02-19 15:05 | 45.00213 | 9.66576 | 19057 ft | 405 kts | 153° |
| 2026-02-19 15:05 | 44.97657 | 9.68388 | 19733 ft | 407 kts | 154° |
| 2026-02-19 15:06 | 44.95146 | 9.70138 | 20387 ft | 408 kts | 154° |
| 2026-02-19 15:06 | 44.92579 | 9.71879 | 21048 ft | 410 kts | 155° |
| 2026-02-19 15:06 | 44.89986 | 9.73593 | 21707 ft | 412 kts | 156° |
| 2026-02-19 15:06 | 44.87375 | 9.75287 | 22357 ft | 414 kts | 156° |
| 2026-02-19 15:07 | 44.84747 | 9.76976 | 22990 ft | 416 kts | 156° |
| 2026-02-19 15:07 | 44.82111 | 9.78668 | 23532 ft | 418 kts | 156° |
| 2026-02-19 15:07 | 44.79455 | 9.80381 | 24028 ft | 420 kts | 156° |
| 2026-02-19 15:07 | 44.76794 | 9.82097 | 24510 ft | 422 kts | 156° |
| 2026-02-19 15:08 | 44.74114 | 9.83829 | 24931 ft | 425 kts | 156° |
| 2026-02-19 15:08 | 44.68838 | 9.87655 | 25802 ft | 430 kts | 148° |
| 2026-02-19 15:08 | 44.66484 | 9.90264 | 26309 ft | 432 kts | 139° |
| 2026-02-19 15:09 | 44.64358 | 9.93271 | 26749 ft | 435 kts | 136° |
| 2026-02-19 15:09 | 44.62251 | 9.96328 | 27186 ft | 437 kts | 136° |
| 2026-02-19 15:09 | 44.60129 | 9.99396 | 27586 ft | 439 kts | 136° |
| 2026-02-19 15:09 | 44.57991 | 10.02479 | 27987 ft | 441 kts | 136° |
| 2026-02-19 15:10 | 44.55843 | 10.05569 | 28377 ft | 444 kts | 136° |
| 2026-02-19 15:10 | 44.53680 | 10.08675 | 28737 ft | 446 kts | 136° |
| 2026-02-19 15:10 | 44.51537 | 10.11752 | 29096 ft | 448 kts | 137° |
| 2026-02-19 15:10 | 44.49160 | 10.14654 | 29433 ft | 447 kts | 146° |
| 2026-02-19 15:11 | 44.46572 | 10.16962 | 29738 ft | 446 kts | 155° |
| 2026-02-19 15:11 | 44.43743 | 10.18739 | 30001 ft | 445 kts | 162° |
| 2026-02-19 15:11 | 44.40837 | 10.20272 | 30244 ft | 448 kts | 162° |
| 2026-02-19 15:11 | 44.37918 | 10.21812 | 30550 ft | 448 kts | 162° |
| 2026-02-19 15:12 | 44.34997 | 10.23357 | 30828 ft | 449 kts | 163° |
| 2026-02-19 15:12 | 44.29145 | 10.26439 | 31405 ft | 449 kts | 163° |
| 2026-02-19 15:12 | 44.26220 | 10.27979 | 31720 ft | 449 kts | 163° |
| 2026-02-19 15:13 | 44.23304 | 10.29520 | 32021 ft | 449 kts | 163° |
| 2026-02-19 15:13 | 44.20378 | 10.31068 | 32349 ft | 449 kts | 163° |
| 2026-02-19 15:13 | 44.17455 | 10.32609 | 32556 ft | 449 kts | 163° |
| 2026-02-19 15:13 | 44.14571 | 10.34129 | 32565 ft | 439 kts | 163° |
| 2026-02-19 15:14 | 44.08899 | 10.37036 | 32584 ft | 432 kts | 165° |
| 2026-02-19 15:14 | 44.03214 | 10.39773 | 32604 ft | 431 kts | 165° |
| 2026-02-19 15:15 | 43.97536 | 10.42475 | 32630 ft | 431 kts | 165° |
| 2026-02-19 15:15 | 43.91902 | 10.45192 | 32630 ft | 432 kts | 165° |
| 2026-02-19 15:16 | 43.83396 | 10.49313 | 32648 ft | 431 kts | 165° |
| 2026-02-19 15:17 | 43.77722 | 10.52050 | 32658 ft | 431 kts | 165° |
| 2026-02-19 15:17 | 43.72050 | 10.54770 | 32640 ft | 431 kts | 165° |
| 2026-02-19 15:18 | 43.66380 | 10.57482 | 32622 ft | 431 kts | 166° |
| 2026-02-19 15:18 | 43.60739 | 10.60188 | 32667 ft | 428 kts | 166° |
| 2026-02-19 15:19 | 43.55156 | 10.62855 | 32669 ft | 426 kts | 166° |
| 2026-02-19 15:19 | 43.49555 | 10.65525 | 32663 ft | 426 kts | 166° |
| 2026-02-19 15:20 | 43.43962 | 10.68188 | 32669 ft | 425 kts | 166° |
| 2026-02-19 15:20 | 43.35574 | 10.72167 | 32577 ft | 426 kts | 166° |
| 2026-02-19 15:21 | 43.32774 | 10.73495 | 32304 ft | 425 kts | 166° |
| 2026-02-19 15:21 | 43.29983 | 10.74819 | 32023 ft | 425 kts | 166° |
| 2026-02-19 15:21 | 43.27188 | 10.76137 | 31769 ft | 424 kts | 166° |
| 2026-02-19 15:21 | 43.24394 | 10.77450 | 31515 ft | 424 kts | 166° |
| 2026-02-19 15:22 | 43.18820 | 10.80074 | 31021 ft | 422 kts | 166° |
| 2026-02-19 15:22 | 43.16048 | 10.81377 | 30756 ft | 419 kts | 166° |
| 2026-02-19 15:22 | 43.13304 | 10.82671 | 30264 ft | 414 kts | 166° |
| 2026-02-19 15:23 | 43.10602 | 10.83946 | 29749 ft | 409 kts | 166° |
| 2026-02-19 15:23 | 43.07936 | 10.85203 | 29192 ft | 403 kts | 166° |
| 2026-02-19 15:23 | 43.05302 | 10.86442 | 28620 ft | 398 kts | 166° |
| 2026-02-19 15:23 | 43.02693 | 10.87667 | 28031 ft | 394 kts | 166° |
| 2026-02-19 15:24 | 42.95011 | 10.91261 | 26364 ft | 384 kts | 166° |
| 2026-02-19 15:24 | 42.92496 | 10.92436 | 25831 ft | 381 kts | 166° |
| 2026-02-19 15:25 | 42.89997 | 10.93603 | 25302 ft | 378 kts | 167° |
| 2026-02-19 15:25 | 42.87516 | 10.94759 | 24834 ft | 376 kts | 166° |
| 2026-02-19 15:25 | 42.85051 | 10.95905 | 24675 ft | 373 kts | 166° |
| 2026-02-19 15:25 | 42.82638 | 10.97225 | 24699 ft | 377 kts | 158° |
| 2026-02-19 15:26 | 42.80395 | 10.99122 | 24637 ft | 381 kts | 148° |
| 2026-02-19 15:26 | 42.78423 | 11.01556 | 24173 ft | 386 kts | 137° |
| 2026-02-19 15:26 | 42.76793 | 11.04471 | 23700 ft | 388 kts | 129° |
| 2026-02-19 15:26 | 42.75191 | 11.07395 | 23232 ft | 383 kts | 134° |
| 2026-02-19 15:27 | 42.73471 | 11.10139 | 22686 ft | 379 kts | 136° |
| 2026-02-19 15:27 | 42.71703 | 11.12773 | 22159 ft | 376 kts | 137° |
| 2026-02-19 15:27 | 42.69925 | 11.15364 | 21650 ft | 373 kts | 137° |
| 2026-02-19 15:27 | 42.68168 | 11.17946 | 21157 ft | 371 kts | 137° |
| 2026-02-19 15:28 | 42.66438 | 11.20540 | 20665 ft | 369 kts | 137° |
| 2026-02-19 15:28 | 42.63066 | 11.25733 | 19663 ft | 365 kts | 136° |
| 2026-02-19 15:28 | 42.61397 | 11.28330 | 19184 ft | 364 kts | 136° |
| 2026-02-19 15:29 | 42.59753 | 11.30887 | 18716 ft | 362 kts | 136° |
| 2026-02-19 15:29 | 42.58105 | 11.33450 | 18287 ft | 359 kts | 136° |
| 2026-02-19 15:29 | 42.56459 | 11.35996 | 17808 ft | 358 kts | 136° |
| 2026-02-19 15:30 | 42.53183 | 11.41037 | 16853 ft | 354 kts | 136° |
| 2026-02-19 15:30 | 42.51553 | 11.43536 | 16382 ft | 352 kts | 136° |
| 2026-02-19 15:30 | 42.49938 | 11.46014 | 15946 ft | 350 kts | 135° |
| 2026-02-19 15:30 | 42.48332 | 11.48483 | 15526 ft | 348 kts | 135° |
| 2026-02-19 15:31 | 42.46735 | 11.50937 | 15107 ft | 346 kts | 135° |
| 2026-02-19 15:31 | 42.43573 | 11.55792 | 14263 ft | 342 kts | 135° |
| 2026-02-19 15:31 | 42.42003 | 11.58199 | 13818 ft | 341 kts | 134° |
| 2026-02-19 15:32 | 42.40436 | 11.60601 | 13396 ft | 339 kts | 134° |
| 2026-02-19 15:32 | 42.37326 | 11.65348 | 12473 ft | 332 kts | 134° |
| 2026-02-19 15:32 | 42.35825 | 11.67643 | 12062 ft | 317 kts | 134° |
| 2026-02-19 15:33 | 42.32946 | 11.72046 | 10598 ft | 320 kts | 135° |
| 2026-02-19 15:33 | 42.31436 | 11.74335 | 9290 ft | 332 kts | 135° |
| 2026-02-19 15:33 | 42.29905 | 11.76657 | 8683 ft | 320 kts | 134° |
| 2026-02-19 15:34 | 42.27108 | 11.80922 | 7331 ft | 305 kts | 135° |
| 2026-02-19 15:34 | 42.25660 | 11.83111 | 6025 ft | 319 kts | 135° |
| 2026-02-19 15:34 | 42.24160 | 11.85377 | 4838 ft | 325 kts | 134° |
| 2026-02-19 15:35 | 42.22691 | 11.87611 | 4325 ft | 308 kts | 133° |
| 2026-02-19 15:35 | 42.21345 | 11.89663 | 4123 ft | 285 kts | 133° |
| 2026-02-19 15:35 | 42.20035 | 11.91654 | 3994 ft | 284 kts | 133° |
| 2026-02-19 15:35 | 42.18731 | 11.93625 | 3931 ft | 280 kts | 133° |
| 2026-02-19 15:36 | 42.17437 | 11.95578 | 3922 ft | 278 kts | 133° |
| 2026-02-19 15:36 | 42.14838 | 11.99491 | 3910 ft | 281 kts | 133° |
| 2026-02-19 15:36 | 42.13571 | 12.01402 | 3896 ft | 264 kts | 134° |
| 2026-02-19 15:37 | 42.12380 | 12.03203 | 3893 ft | 253 kts | 134° |
| 2026-02-19 15:37 | 42.11212 | 12.04962 | 3857 ft | 251 kts | 135° |
| 2026-02-19 15:37 | 42.10045 | 12.06686 | 3618 ft | 248 kts | 135° |
| 2026-02-19 15:37 | 42.08875 | 12.08393 | 3260 ft | 247 kts | 135° |
| 2026-02-19 15:38 | 42.07717 | 12.10080 | 2940 ft | 244 kts | 135° |
| 2026-02-19 15:38 | 42.06566 | 12.11759 | 2855 ft | 245 kts | 134° |
| 2026-02-19 15:38 | 42.05403 | 12.13452 | 2848 ft | 248 kts | 135° |
| 2026-02-19 15:38 | 42.04261 | 12.15114 | 2838 ft | 232 kts | 135° |
| 2026-02-19 15:39 | 42.03205 | 12.16657 | 2831 ft | 216 kts | 135° |
| 2026-02-19 15:39 | 42.02202 | 12.18117 | 2867 ft | 210 kts | 138° |
| 2026-02-19 15:39 | 42.01029 | 12.19213 | 2981 ft | 203 kts | 162° |
| 2026-02-19 15:39 | 41.99703 | 12.19806 | 2981 ft | 200 kts | 167° |
| 2026-02-19 15:40 | 41.98385 | 12.20359 | 2851 ft | 197 kts | 167° |
| 2026-02-19 15:40 | 41.95782 | 12.21453 | 2361 ft | 195 kts | 169° |
| 2026-02-19 15:41 | 41.93243 | 12.22523 | 1833 ft | 182 kts | 169° |
| 2026-02-19 15:41 | 41.92080 | 12.23015 | 1613 ft | 168 kts | 171° |
| 2026-02-19 15:41 | 41.91002 | 12.23467 | 1382 ft | 158 kts | 172° |
| 2026-02-19 15:41 | 41.89983 | 12.23895 | 1168 ft | 150 kts | 172° |
| 2026-02-19 15:42 | 41.89019 | 12.24298 | 959 ft | 144 kts | 171° |
| 2026-02-19 15:42 | 41.88078 | 12.24701 | 769 ft | 139 kts | 169° |
| 2026-02-19 15:42 | 41.87158 | 12.25094 | 649 ft | 138 kts | 172° |
| 2026-02-19 15:42 | 41.86254 | 12.25494 | 497 ft | 136 kts | 167° |
| 2026-02-19 15:43 | 41.85352 | 12.25879 | 359 ft | 139 kts | 169° |
| 2026-02-19 15:43 | 41.84332 | 12.26301 | 848 ft | 168 kts | 168° |
| 2026-02-19 15:43 | 41.83142 | 12.26826 | 1487 ft | 188 kts | 168° |
| 2026-02-19 15:43 | 41.81870 | 12.27433 | 1993 ft | 200 kts | 165° |
| 2026-02-19 15:44 | 41.80516 | 12.28157 | 2477 ft | 217 kts | 163° |
| 2026-02-19 15:44 | 41.77668 | 12.29687 | 3849 ft | 224 kts | 163° |
| 2026-02-19 15:44 | 41.76232 | 12.30477 | 3948 ft | 223 kts | 156° |
| 2026-02-19 15:45 | 41.75031 | 12.31823 | 3977 ft | 231 kts | 126° |
| 2026-02-19 15:45 | 41.74526 | 12.33858 | 3980 ft | 235 kts | 90° |
| 2026-02-19 15:45 | 41.74910 | 12.35935 | 3979 ft | 230 kts | 53° |
| 2026-02-19 15:45 | 41.75597 | 12.36984 | 3980 ft | 224 kts | 30° |
| 2026-02-19 15:46 | 41.77460 | 12.37916 | 3977 ft | 215 kts | 4° |
| 2026-02-19 15:46 | 41.78933 | 12.38294 | 3976 ft | 215 kts | 5° |
| 2026-02-19 15:46 | 41.80409 | 12.38661 | 3977 ft | 216 kts | 4° |
| 2026-02-19 15:46 | 41.81884 | 12.39022 | 3974 ft | 215 kts | 3° |
| 2026-02-19 15:47 | 41.83340 | 12.39065 | 3975 ft | 205 kts | 347° |
| 2026-02-19 15:47 | 41.84296 | 12.38882 | 3980 ft | 206 kts | 345° |
| 2026-02-19 15:47 | 41.85696 | 12.38580 | 3978 ft | 207 kts | 345° |
| 2026-02-19 15:47 | 41.87136 | 12.38260 | 4006 ft | 207 kts | 343° |
| 2026-02-19 15:48 | 41.88556 | 12.37954 | 4001 ft | 206 kts | 343° |
| 2026-02-19 15:48 | 41.91365 | 12.37296 | 4006 ft | 207 kts | 344° |
| 2026-02-19 15:48 | 41.92798 | 12.36963 | 3894 ft | 205 kts | 345° |
| 2026-02-19 15:49 | 41.94204 | 12.36643 | 3651 ft | 204 kts | 344° |
| 2026-02-19 15:49 | 41.95590 | 12.36322 | 3450 ft | 200 kts | 345° |
| 2026-02-19 15:49 | 41.96939 | 12.35979 | 3194 ft | 199 kts | 344° |
| 2026-02-19 15:49 | 41.98292 | 12.35621 | 2949 ft | 198 kts | 345° |
| 2026-02-19 15:50 | 41.99643 | 12.35232 | 2715 ft | 197 kts | 345° |
| 2026-02-19 15:50 | 42.00955 | 12.34780 | 2568 ft | 194 kts | 332° |
| 2026-02-19 15:50 | 42.01904 | 12.33569 | 2497 ft | 189 kts | 294° |
| 2026-02-19 15:50 | 42.02179 | 12.31850 | 2496 ft | 190 kts | 276° |
| 2026-02-19 15:51 | 42.02258 | 12.30059 | 2497 ft | 193 kts | 274° |
| 2026-02-19 15:51 | 42.02324 | 12.28267 | 2491 ft | 191 kts | 274° |
| 2026-02-19 15:51 | 42.02383 | 12.26468 | 2497 ft | 193 kts | 274° |
| 2026-02-19 15:51 | 42.02091 | 12.24717 | 2493 ft | 196 kts | 242° |
| 2026-02-19 15:52 | 42.01078 | 12.23563 | 2499 ft | 191 kts | 209° |
| 2026-02-19 15:52 | 41.98670 | 12.22274 | 2470 ft | 175 kts | 205° |
| 2026-02-19 15:52 | 41.97547 | 12.21749 | 2466 ft | 169 kts | 206° |
| 2026-02-19 15:53 | 41.96399 | 12.21385 | 2405 ft | 172 kts | 186° |
| 2026-02-19 15:53 | 41.95208 | 12.21680 | 2222 ft | 177 kts | 169° |
| 2026-02-19 15:53 | 41.94045 | 12.22177 | 2001 ft | 174 kts | 168° |
| 2026-02-19 15:53 | 41.92900 | 12.22663 | 1767 ft | 171 kts | 170° |
| 2026-02-19 15:54 | 41.91787 | 12.23133 | 1531 ft | 163 kts | 169° |
| 2026-02-19 15:54 | 41.90746 | 12.23573 | 1329 ft | 152 kts | 170° |
| 2026-02-19 15:54 | 41.88803 | 12.24387 | 927 ft | 140 kts | 169° |
| 2026-02-19 15:55 | 41.87877 | 12.24774 | 737 ft | 140 kts | 169° |
| 2026-02-19 15:55 | 41.86954 | 12.25161 | 553 ft | 137 kts | 167° |
| 2026-02-19 15:55 | 41.86054 | 12.25539 | 368 ft | 135 kts | 171° |
| 2026-02-19 15:55 | 41.85167 | 12.25940 | 212 ft | 133 kts | 172° |
| 2026-02-19 15:56 | 41.84285 | 12.26277 | 32 ft | 130 kts | 170° |
| 2026-02-19 15:56 | 41.83123 | 12.26766 | 11 ft | 38 kts | 163° |
| 2026-02-19 15:56 | 41.82885 | 12.26859 | 13 ft | 35 kts | 169° |
| 2026-02-19 15:57 | 41.82651 | 12.26855 | 11 ft | 33 kts | 191° |
| 2026-02-19 15:57 | 41.82441 | 12.26789 | 11 ft | 29 kts | 192° |
| 2026-02-19 15:57 | 41.82060 | 12.26889 | 11 ft | 29 kts | 161° |
| 2026-02-19 15:58 | 41.81867 | 12.26970 | 11 ft | 29 kts | 161° |
| 2026-02-19 15:58 | 41.81667 | 12.27054 | 12 ft | 31 kts | 162° |
| 2026-02-19 15:58 | 41.81454 | 12.27142 | 12 ft | 33 kts | 163° |
| 2026-02-19 15:58 | 41.81246 | 12.27230 | 12 ft | 22 kts | 163° |
| 2026-02-19 15:59 | 41.81094 | 12.27294 | 12 ft | 24 kts | 163° |
| 2026-02-19 15:59 | 41.80936 | 12.27352 | 13 ft | 23 kts | 175° |
| 2026-02-19 15:59 | 41.80772 | 12.27321 | 13 ft | 25 kts | 188° |
| 2026-02-19 15:59 | 41.80649 | 12.27201 | 13 ft | 22 kts | 248° |
| 2026-02-19 16:00 | 41.80597 | 12.27012 | 14 ft | 21 kts | 250° |
| 2026-02-19 16:00 | 41.80496 | 12.26647 | 16 ft | 20 kts | 249° |
| 2026-02-19 16:00 | 41.80450 | 12.26474 | 16 ft | 20 kts | 250° |
| 2026-02-19 16:01 | 41.80385 | 12.26368 | 15 ft | 16 kts | 187° |
| 2026-02-19 16:01 | 41.80271 | 12.26408 | 14 ft | 18 kts | 165° |
| 2026-02-19 16:01 | 41.80150 | 12.26367 | 14 ft | 19 kts | 206° |
| 2026-02-19 16:01 | 41.80022 | 12.26287 | 14 ft | 21 kts | 205° |
| 2026-02-19 16:02 | 41.79926 | 12.26227 | 14 ft | 12 kts | 205° |
| 2026-02-19 16:02 | 41.79873 | 12.26195 | 15 ft | 7 kts | 205° |
| 2026-02-19 16:02 | 41.79867 | 12.26192 | 16 ft | 1 kts | 205° |
| 2026-02-19 16:03 | 41.79839 | 12.26171 | 16 ft | 8 kts | 218° |
| 2026-02-19 16:03 | 41.79827 | 12.26097 | 14 ft | 10 kts | 288° |
| 2026-02-19 16:03 | 41.79860 | 12.26006 | 15 ft | 12 kts | 295° |
| 2026-02-19 16:03 | 41.79887 | 12.25930 | 14 ft | 0 kts | 295° |
| 2026-02-19 16:05 | 41.79889 | 12.25925 | 16 ft | 3 kts | 295° |
| 2026-02-19 16:05 | 41.79909 | 12.25866 | 14 ft | 11 kts | 295° |
| 2026-02-19 16:05 | 41.79948 | 12.25757 | 14 ft | 14 kts | 295° |
| 2026-02-19 16:05 | 41.79993 | 12.25630 | 15 ft | 15 kts | 295° |
| 2026-02-19 16:06 | 41.79974 | 12.25561 | 14 ft | 10 kts | 208° |
| 2026-02-19 16:06 | 41.79905 | 12.25517 | 14 ft | 12 kts | 205° |
| 2026-02-19 16:06 | 41.79830 | 12.25470 | 15 ft | 10 kts | 205° |
| 2026-02-19 16:06 | 41.79756 | 12.25423 | 15 ft | 9 kts | 205° |
| 2026-02-19 16:07 | 41.79727 | 12.25404 | 14 ft | 5 kts | 205° |
| 2026-02-19 16:07 | 41.79700 | 12.25415 | 15 ft | 3 kts | 134° |
| 2026-02-19 16:07 | 41.79690 | 12.25438 | 14 ft | 3 kts | 118° |
| 2026-02-19 16:07 | 41.79683 | 12.25455 | 14 ft | 2 kts | 116° |
| 2026-02-19 16:08 | 41.79682 | 12.25460 | 14 ft | 0 kts | 116° |